createdAt,value
2022-12-18T00:01:18.543Z,30.27
2022-12-18T00:03:46.493Z,28.77
2022-12-18T00:06:15.692Z,30.37
2022-12-18T00:08:43.338Z,29.30
2022-12-18T00:11:13.298Z,29.63
2022-12-18T00:13:41.263Z,28.70
2022-12-18T00:16:10.792Z,29.17
2022-12-18T00:18:38.510Z,28.47
2022-12-18T00:21:07.571Z,28.50
2022-12-18T00:23:35.962Z,27.27
2022-12-18T00:26:04.415Z,28.00
2022-12-18T00:28:31.791Z,28.27
2022-12-18T00:31:06.750Z,28.00
2022-12-18T00:33:34.051Z,25.83
2022-12-18T00:36:05.429Z,28.27
2022-12-18T00:38:33.281Z,26.10
2022-12-18T00:41:00.537Z,27.50
2022-12-18T00:43:27.914Z,27.90
2022-12-18T00:45:55.360Z,26.13
2022-12-18T00:48:22.710Z,24.87
2022-12-18T00:50:50.690Z,24.53
2022-12-18T00:53:17.967Z,24.33
2022-12-18T00:55:45.309Z,25.23
2022-12-18T00:58:13.179Z,26.13
2022-12-18T01:00:40.469Z,24.90
2022-12-18T01:03:14.357Z,24.73
2022-12-18T01:05:42.177Z,24.07
2022-12-18T01:08:09.494Z,24.67
2022-12-18T01:10:36.761Z,22.73
2022-12-18T01:13:04.381Z,23.17
2022-12-18T01:15:31.606Z,25.00
2022-12-18T01:17:58.877Z,23.40
2022-12-18T01:20:27.891Z,22.33
2022-12-18T01:22:55.115Z,21.87
2022-12-18T01:25:22.398Z,21.70
2022-12-18T01:27:51.592Z,21.23
2022-12-18T01:30:18.834Z,21.43
2022-12-18T01:32:46.311Z,22.30
2022-12-18T01:35:14.039Z,20.93
2022-12-18T01:37:41.247Z,19.90
2022-12-18T01:40:09.155Z,20.27
2022-12-18T01:42:36.404Z,19.17
2022-12-18T01:45:06.743Z,18.93
2022-12-18T01:47:36.554Z,19.40
2022-12-18T01:50:10.628Z,19.77
2022-12-18T01:52:38.941Z,19.63
2022-12-18T01:55:06.992Z,20.87
2022-12-18T01:57:36.112Z,20.20
2022-12-18T02:00:06.506Z,20.83
2022-12-18T02:02:54.368Z,21.70
2022-12-18T02:05:36.357Z,20.67
2022-12-18T02:08:18.923Z,19.50
2022-12-18T02:10:48.429Z,21.23
2022-12-18T02:13:33.926Z,18.90
2022-12-18T02:16:09.485Z,20.07
2022-12-18T02:18:42.702Z,17.97
2022-12-18T02:21:22.441Z,17.03
2022-12-18T02:23:56.594Z,16.90
2022-12-18T02:26:28.093Z,16.63
2022-12-18T02:28:58.132Z,16.20
2022-12-18T02:31:29.188Z,16.00
2022-12-18T02:34:02.004Z,16.50
2022-12-18T02:36:39.939Z,16.40
2022-12-18T02:39:08.797Z,16.07
2022-12-18T02:41:38.142Z,16.13
2022-12-18T02:44:09.223Z,15.63
2022-12-18T02:46:38.677Z,15.33
2022-12-18T02:49:28.662Z,15.63
2022-12-18T02:52:21.536Z,15.20
2022-12-18T02:55:00.953Z,15.43
2022-12-18T02:58:08.667Z,15.80
2022-12-18T03:00:48.619Z,15.50
2022-12-18T03:03:18.669Z,14.83
2022-12-18T03:06:13.419Z,15.40
2022-12-18T03:08:46.128Z,14.67
2022-12-18T03:11:14.927Z,14.53
2022-12-18T03:13:43.369Z,13.97
2022-12-18T03:16:14.027Z,14.43
2022-12-18T03:18:50.189Z,15.10
2022-12-18T03:21:18.788Z,13.47
2022-12-18T03:23:49.284Z,13.90
2022-12-18T03:26:19.648Z,12.43
2022-12-18T03:28:51.946Z,12.70
2022-12-18T03:31:21.745Z,12.30
2022-12-18T03:34:00.502Z,12.77
2022-12-18T03:36:36.308Z,12.47
2022-12-18T03:39:03.820Z,12.77
2022-12-18T03:41:39.692Z,11.70
2022-12-18T03:44:27.263Z,12.03
2022-12-18T03:46:55.515Z,12.47
2022-12-18T03:49:29.408Z,11.57
2022-12-18T03:52:07.875Z,12.47
2022-12-18T03:54:35.519Z,11.80
2022-12-18T03:57:17.405Z,11.20
2022-12-18T03:59:46.321Z,11.33
2022-12-18T04:02:18.440Z,10.80
2022-12-18T04:04:48.523Z,11.60
2022-12-18T04:07:16.402Z,11.33
2022-12-18T04:09:47.328Z,10.60
2022-12-18T04:12:15.484Z,10.27
2022-12-18T04:14:43.148Z,10.53
2022-12-18T04:17:10.852Z,11.33
2022-12-18T04:19:38.270Z,11.03
2022-12-18T04:22:05.605Z,10.90
2022-12-18T04:24:40.353Z,10.63
2022-12-18T04:27:14.938Z,11.03
2022-12-18T04:29:47.038Z,11.00
2022-12-18T04:32:15.699Z,11.33
2022-12-18T04:34:44.992Z,10.23
2022-12-18T04:37:12.735Z,10.47
2022-12-18T04:39:40.366Z,10.70
2022-12-18T04:42:14.791Z,11.00
2022-12-18T04:44:42.098Z,10.67
2022-12-18T04:47:09.347Z,10.93
2022-12-18T04:49:36.629Z,11.07
2022-12-18T04:52:04.064Z,11.37
2022-12-18T04:54:33.935Z,10.33
2022-12-18T04:57:01.219Z,10.60
2022-12-18T04:59:28.481Z,10.90
2022-12-18T05:01:55.942Z,10.60
2022-12-18T05:04:23.249Z,10.20
2022-12-18T05:06:50.514Z,11.07
2022-12-18T05:09:17.749Z,11.00
2022-12-18T05:11:47.609Z,10.80
2022-12-18T05:14:14.951Z,10.90
2022-12-18T05:16:42.191Z,10.90
2022-12-18T05:19:09.603Z,10.43
2022-12-18T05:21:36.829Z,11.13
2022-12-18T05:24:04.254Z,9.93
2022-12-18T05:26:31.713Z,11.13
2022-12-18T05:28:58.952Z,10.37
2022-12-18T05:31:26.326Z,10.50
2022-12-18T05:33:53.635Z,10.40
2022-12-18T05:36:21.050Z,10.70
2022-12-18T05:38:48.256Z,10.50
2022-12-18T05:41:15.446Z,10.30
2022-12-18T05:43:43.291Z,10.87
2022-12-18T05:46:15.450Z,10.30
2022-12-18T05:48:43.365Z,10.80
2022-12-18T05:51:12.383Z,11.00
2022-12-18T05:53:40.347Z,11.17
2022-12-18T05:56:10.996Z,11.03
2022-12-18T05:58:38.751Z,10.50
2022-12-18T06:01:10.360Z,10.77
2022-12-18T06:03:56.424Z,10.70
2022-12-18T06:06:27.717Z,10.47
2022-12-18T06:08:55.593Z,10.67
2022-12-18T06:11:24.481Z,10.30
2022-12-18T06:13:57.948Z,10.47
2022-12-18T06:16:25.730Z,10.80
2022-12-18T06:18:53.185Z,10.40
2022-12-18T06:21:20.810Z,10.63
2022-12-18T06:23:48.063Z,10.13
2022-12-18T06:26:15.592Z,10.73
2022-12-18T06:28:42.984Z,9.97
2022-12-18T06:31:10.290Z,10.03
2022-12-18T06:33:37.818Z,11.77
2022-12-18T06:36:12.752Z,10.50
2022-12-18T06:38:41.198Z,10.73
2022-12-18T06:41:14.557Z,10.60
2022-12-18T06:43:42.424Z,10.77
2022-12-18T06:46:10.293Z,11.03
2022-12-18T06:48:37.598Z,10.60
2022-12-18T06:51:04.996Z,10.83
2022-12-18T06:53:33.233Z,11.47
2022-12-18T06:56:09.394Z,11.73
2022-12-18T06:58:37.319Z,11.20
2022-12-18T07:01:05.595Z,11.63
2022-12-18T07:03:33.316Z,11.83
2022-12-18T07:06:00.614Z,11.63
2022-12-18T07:08:27.784Z,11.20
2022-12-18T07:10:56.479Z,11.43
2022-12-18T07:13:24.393Z,11.63
2022-12-18T07:15:51.588Z,11.73
2022-12-18T07:18:18.840Z,12.50
2022-12-18T07:20:46.028Z,13.27
2022-12-18T07:23:15.265Z,12.63
2022-12-18T07:25:42.578Z,13.40
2022-12-18T07:28:15.671Z,12.77
2022-12-18T07:30:44.504Z,12.57
2022-12-18T07:33:11.723Z,12.27
2022-12-18T07:35:39.102Z,12.73
2022-12-18T07:38:07.024Z,13.43
2022-12-18T07:40:34.289Z,13.30
2022-12-18T07:43:01.556Z,13.47
2022-12-18T07:45:28.820Z,13.50
2022-12-18T07:47:59.096Z,13.97
2022-12-18T07:50:26.391Z,12.67
2022-12-18T07:52:53.574Z,14.40
2022-12-18T07:55:20.913Z,14.30
2022-12-18T07:57:50.980Z,13.97
2022-12-18T08:00:19.930Z,14.30
2022-12-18T08:02:48.862Z,13.90
2022-12-18T08:05:16.267Z,14.03
2022-12-18T08:07:43.508Z,13.77
2022-12-18T08:10:10.863Z,14.13
2022-12-18T08:12:39.320Z,14.87
2022-12-18T08:15:07.108Z,14.67
2022-12-18T08:17:34.384Z,15.23
2022-12-18T08:20:02.179Z,16.53
2022-12-18T08:22:29.477Z,18.87
2022-12-18T08:24:56.727Z,18.80
2022-12-18T08:27:30.964Z,19.23
2022-12-18T08:29:59.038Z,19.37
2022-12-18T08:32:27.253Z,18.00
2022-12-18T08:34:54.489Z,16.37
2022-12-18T08:37:21.754Z,15.67
2022-12-18T08:39:49.073Z,15.40
2022-12-18T08:42:34.824Z,15.00
2022-12-18T08:45:02.486Z,14.40
2022-12-18T08:47:30.180Z,15.40
2022-12-18T08:49:57.503Z,15.60
2022-12-18T08:52:24.863Z,14.47
2022-12-18T08:54:52.077Z,15.77
2022-12-18T08:57:19.298Z,15.97
2022-12-18T08:59:46.629Z,27.83
2022-12-18T09:02:14.089Z,20.93
2022-12-18T09:04:41.579Z,17.50
2022-12-18T09:07:08.877Z,16.63
2022-12-18T09:09:36.272Z,16.97
2022-12-18T09:12:03.587Z,17.93
2022-12-18T09:14:30.834Z,18.40
2022-12-18T09:16:58.051Z,17.17
2022-12-18T09:19:25.405Z,18.43
2022-12-18T09:21:52.673Z,18.50
2022-12-18T09:24:20.054Z,19.30
2022-12-18T09:26:53.622Z,20.07
2022-12-18T09:29:24.868Z,19.10
2022-12-18T09:31:52.165Z,20.67
2022-12-18T09:34:21.935Z,19.83
2022-12-18T09:36:50.035Z,18.77
2022-12-18T09:39:17.665Z,19.50
2022-12-18T09:41:50.992Z,19.07
2022-12-18T09:44:36.799Z,17.03
2022-12-18T09:47:12.127Z,17.73
2022-12-18T09:49:42.292Z,17.53
2022-12-18T09:52:09.721Z,17.07
2022-12-18T09:54:42.817Z,16.47
2022-12-18T09:57:17.198Z,15.97
2022-12-18T09:59:45.670Z,16.73
2022-12-18T10:02:17.131Z,16.93
2022-12-18T10:04:44.731Z,15.97
2022-12-18T10:07:17.472Z,16.37
2022-12-18T10:10:14.012Z,16.10
2022-12-18T10:12:41.527Z,16.33
2022-12-18T10:15:09.125Z,15.13
2022-12-18T10:17:39.405Z,15.63
2022-12-18T10:20:09.826Z,15.37
2022-12-18T10:22:52.652Z,15.53
2022-12-18T10:25:38.560Z,16.03
2022-12-18T10:28:16.394Z,15.83
2022-12-18T10:30:44.709Z,14.93
2022-12-18T10:33:20.305Z,15.00
2022-12-18T10:35:48.851Z,14.83
2022-12-18T10:38:19.006Z,15.10
2022-12-18T10:40:55.309Z,15.13
2022-12-18T10:43:24.700Z,14.60
2022-12-18T10:46:04.523Z,14.07
2022-12-18T10:48:32.880Z,15.00
2022-12-18T10:51:15.613Z,12.97
2022-12-18T10:53:44.436Z,14.30
2022-12-18T10:56:31.187Z,16.37
2022-12-18T10:59:17.521Z,15.67
2022-12-18T11:01:48.354Z,14.10
2022-12-18T11:04:25.951Z,14.17
2022-12-18T11:07:00.911Z,12.83
2022-12-18T11:09:57.504Z,12.73
2022-12-18T11:12:25.153Z,12.73
2022-12-18T11:14:53.234Z,12.57
2022-12-18T11:17:26.520Z,12.87
2022-12-18T11:19:58.500Z,12.00
2022-12-18T11:22:33.140Z,10.70
2022-12-18T11:25:32.448Z,12.33
2022-12-18T11:27:53.941Z,11.57
2022-12-18T11:30:34.614Z,11.77
2022-12-18T11:33:11.915Z,9.87
2022-12-18T11:35:50.769Z,11.23
2022-12-18T11:38:26.285Z,12.00
2022-12-18T11:41:06.287Z,11.73
2022-12-18T11:43:42.076Z,11.73
2022-12-18T11:46:19.589Z,12.70
2022-12-18T11:49:07.245Z,10.10
2022-12-18T11:51:45.166Z,11.90
2022-12-18T11:54:16.796Z,12.53
2022-12-18T11:56:56.532Z,13.57
2022-12-18T11:59:33.467Z,10.83
2022-12-18T12:02:05.790Z,11.63
2022-12-18T12:05:00.882Z,10.83
2022-12-18T12:08:19.941Z,10.83
2022-12-18T12:11:05.892Z,12.40
2022-12-18T12:13:36.724Z,11.20
2022-12-18T12:16:04.017Z,12.07
2022-12-18T12:18:37.708Z,10.17
2022-12-18T12:21:23.996Z,11.93
2022-12-18T12:23:54.477Z,10.33
2022-12-18T12:26:31.056Z,13.07
2022-12-18T12:28:58.552Z,11.90
2022-12-18T12:31:49.947Z,11.47
2022-12-18T12:34:17.321Z,11.13
2022-12-18T12:37:00.770Z,13.23
2022-12-18T12:39:35.355Z,11.70
2022-12-18T12:42:22.597Z,11.93
2022-12-18T12:44:56.357Z,10.20
2022-12-18T12:47:36.989Z,10.00
2022-12-18T12:50:08.051Z,11.80
2022-12-18T12:52:40.848Z,11.57
2022-12-18T12:55:22.777Z,11.40
2022-12-18T12:58:17.082Z,12.90
2022-12-18T13:01:23.506Z,12.73
2022-12-18T13:04:21.774Z,13.37
2022-12-18T13:07:13.369Z,14.03
2022-12-18T13:10:20.859Z,13.80
2022-12-18T13:13:01.978Z,16.40
2022-12-18T13:15:31.663Z,13.87
2022-12-18T13:18:30.013Z,14.33
2022-12-18T13:21:03.262Z,14.10
2022-12-18T13:23:34.413Z,15.40
2022-12-18T13:26:07.560Z,13.63
2022-12-18T13:28:49.782Z,16.07
2022-12-18T13:31:42.900Z,16.20
2022-12-18T13:37:32.872Z,15.50
2022-12-18T13:39:59.793Z,15.20
2022-12-18T13:42:56.761Z,14.27
2022-12-18T13:45:43.442Z,14.27
2022-12-18T13:48:24.343Z,14.60
2022-12-18T13:50:58.368Z,15.13
2022-12-18T13:53:30.586Z,13.20
2022-12-18T13:55:57.959Z,13.30
2022-12-18T13:58:25.235Z,13.27
2022-12-18T14:00:52.360Z,13.07
2022-12-18T14:03:22.850Z,12.00
2022-12-18T14:06:17.381Z,12.83
2022-12-18T14:08:45.775Z,12.23
2022-12-18T14:11:23.966Z,12.20
2022-12-18T14:13:53.736Z,11.73
2022-12-18T14:16:20.917Z,10.50
2022-12-18T14:18:56.890Z,12.33
2022-12-18T14:21:33.553Z,11.67
2022-12-18T14:24:20.800Z,12.20
2022-12-18T14:26:50.596Z,12.23
2022-12-18T14:29:25.537Z,11.37
2022-12-18T14:32:18.695Z,13.00
2022-12-18T14:34:51.884Z,11.87
2022-12-18T14:37:23.117Z,13.23
2022-12-18T14:39:58.039Z,12.33
2022-12-18T14:42:29.012Z,13.20
2022-12-18T14:45:40.973Z,12.17
2022-12-18T14:48:23.447Z,12.87
2022-12-18T14:51:19.689Z,12.23
2022-12-18T14:54:01.376Z,11.23
2022-12-18T14:56:37.131Z,12.73
2022-12-18T14:59:22.205Z,9.87
2022-12-18T15:02:23.907Z,13.50
2022-12-18T15:05:19.413Z,13.07
2022-12-18T15:07:51.911Z,11.93
2022-12-18T15:10:18.750Z,11.77
2022-12-18T15:12:46.655Z,12.40
2022-12-18T15:15:38.820Z,13.17
2022-12-18T15:18:21.079Z,13.17
2022-12-18T15:20:57.762Z,12.67
2022-12-18T15:23:28.500Z,12.80
2022-12-18T15:26:00.639Z,12.80
2022-12-18T15:28:32.512Z,12.43
2022-12-18T15:31:20.863Z,13.23
2022-12-18T15:33:54.105Z,12.80
2022-12-18T15:36:26.687Z,13.03
2022-12-18T15:39:05.340Z,13.63
2022-12-18T15:41:36.195Z,14.03
2022-12-18T15:44:04.022Z,12.30
2022-12-18T15:46:31.741Z,12.73
2022-12-18T15:49:02.292Z,11.90
2022-12-18T15:51:37.807Z,13.87
2022-12-18T15:54:10.237Z,13.90
2022-12-18T15:56:55.599Z,12.77
2022-12-18T15:59:24.092Z,13.93
2022-12-18T16:01:54.062Z,12.80
2022-12-18T16:04:23.055Z,14.07
2022-12-18T16:07:13.814Z,12.77
2022-12-18T16:09:37.802Z,14.77
2022-12-18T16:12:05.294Z,15.40
2022-12-18T16:14:33.357Z,13.00
2022-12-18T16:17:03.343Z,13.17
2022-12-18T16:19:31.032Z,13.83
2022-12-18T16:21:59.407Z,13.03
2022-12-18T16:24:29.062Z,13.27
2022-12-18T16:26:58.654Z,14.17
2022-12-18T16:29:28.239Z,13.47
2022-12-18T16:31:56.262Z,13.73
2022-12-18T16:34:32.102Z,13.93
2022-12-18T16:37:06.959Z,13.60
2022-12-18T16:39:35.443Z,15.07
2022-12-18T16:42:06.083Z,14.90
2022-12-18T16:44:34.425Z,14.20
2022-12-18T16:47:03.014Z,14.53
2022-12-18T16:49:30.885Z,14.53
2022-12-18T16:51:57.987Z,13.37
2022-12-18T16:54:30.466Z,14.63
2022-12-18T16:56:58.010Z,14.90
2022-12-18T16:59:26.784Z,13.27
2022-12-18T17:01:53.977Z,14.33
2022-12-18T17:04:20.919Z,13.07
2022-12-18T17:06:52.076Z,14.00
2022-12-18T17:09:23.688Z,14.03
2022-12-18T17:11:51.260Z,14.03
2022-12-18T17:14:20.574Z,14.23
2022-12-18T17:16:57.816Z,13.80
2022-12-18T17:19:35.250Z,13.93
2022-12-18T17:22:02.497Z,13.97
2022-12-18T17:24:34.537Z,13.77
2022-12-18T17:27:02.820Z,15.57
2022-12-18T17:29:30.118Z,12.43
2022-12-18T17:31:57.285Z,13.67
2022-12-18T17:34:27.190Z,12.87
2022-12-18T17:36:54.190Z,12.33
2022-12-18T17:39:21.596Z,13.87
2022-12-18T17:41:49.229Z,13.03
2022-12-18T17:44:17.255Z,13.97
2022-12-18T17:46:44.332Z,14.60
2022-12-18T17:49:12.184Z,14.47
2022-12-18T17:51:39.226Z,14.67
2022-12-18T17:54:06.495Z,13.17
2022-12-18T17:56:33.759Z,14.03
2022-12-18T17:59:01.221Z,13.07
2022-12-18T18:01:28.264Z,14.30
2022-12-18T18:03:56.271Z,13.73
2022-12-18T18:06:24.164Z,14.77
2022-12-18T18:08:51.260Z,12.10
2022-12-18T18:11:38.904Z,13.60
2022-12-18T18:14:14.627Z,13.07
2022-12-18T18:16:44.489Z,12.37
2022-12-18T18:19:19.912Z,14.60
2022-12-18T18:21:49.103Z,11.77
2022-12-18T18:24:19.205Z,12.40
2022-12-18T18:26:46.921Z,12.63
2022-12-18T18:29:19.881Z,12.13
2022-12-18T18:31:47.122Z,12.40
2022-12-18T18:34:19.166Z,11.27
2022-12-18T18:36:46.411Z,11.87
2022-12-18T18:39:14.128Z,11.70
2022-12-18T18:41:41.394Z,12.03
2022-12-18T18:44:11.337Z,11.57
2022-12-18T18:46:38.194Z,11.93
2022-12-18T18:49:05.656Z,11.87
2022-12-18T18:51:35.109Z,11.30
2022-12-18T18:54:02.644Z,12.47
2022-12-18T18:59:17.062Z,11.93
2022-12-18T19:01:44.521Z,12.93
2022-12-18T19:04:11.534Z,11.13
2022-12-18T19:06:39.044Z,12.17
2022-12-18T19:09:06.691Z,12.13
2022-12-18T19:11:52.767Z,13.30
2022-12-18T19:14:20.350Z,12.50
2022-12-18T19:16:50.571Z,11.33
2022-12-18T19:19:21.024Z,12.93
2022-12-18T19:21:48.372Z,13.57
2022-12-18T19:24:15.321Z,13.53
2022-12-18T19:26:42.180Z,12.93
2022-12-18T19:29:11.367Z,14.07
2022-12-18T19:31:38.659Z,12.93
2022-12-18T19:34:07.202Z,13.57
2022-12-18T19:36:36.380Z,9.90
2022-12-18T19:39:12.833Z,12.93
2022-12-18T19:41:42.162Z,12.03
2022-12-18T19:44:12.293Z,11.87
2022-12-18T19:46:41.968Z,11.33
2022-12-18T19:49:10.472Z,11.70
2022-12-18T19:51:37.539Z,14.13
2022-12-18T19:54:17.018Z,11.77
2022-12-18T19:56:45.111Z,11.97
2022-12-18T19:59:12.494Z,12.40
2022-12-18T20:01:39.475Z,11.10
2022-12-18T20:04:06.695Z,12.77
2022-12-18T20:06:51.383Z,12.73
2022-12-18T20:09:19.563Z,12.70
2022-12-18T20:11:47.791Z,13.03
2022-12-18T20:14:19.597Z,12.97
2022-12-18T20:16:50.898Z,12.80
2022-12-18T20:19:18.566Z,12.63
2022-12-18T20:21:46.067Z,10.27
2022-12-18T20:24:13.074Z,11.00
2022-12-18T20:26:40.534Z,13.63
2022-12-18T20:29:07.395Z,12.77
2022-12-18T20:31:34.562Z,11.13
2022-12-18T20:34:02.591Z,12.23
2022-12-18T20:36:30.649Z,13.00
2022-12-18T20:39:00.440Z,12.97
2022-12-18T20:41:37.647Z,12.40
2022-12-18T20:44:22.582Z,12.20
2022-12-18T20:46:56.595Z,11.23
2022-12-18T20:49:25.506Z,12.17
2022-12-18T20:51:54.048Z,11.37
2022-12-18T20:54:22.505Z,11.90
2022-12-18T20:56:49.550Z,12.00
2022-12-18T20:59:17.416Z,9.47
2022-12-18T21:01:48.437Z,11.27
2022-12-18T21:04:18.525Z,22.90
2022-12-18T21:06:51.257Z,11.93
2022-12-18T21:09:19.350Z,12.50
2022-12-18T21:12:05.202Z,11.57
2022-12-18T21:14:32.111Z,12.77
2022-12-18T21:17:01.835Z,10.87
2022-12-18T21:19:29.711Z,11.60
2022-12-18T21:21:57.723Z,12.33
2022-12-18T21:24:25.507Z,12.37
2022-12-18T21:26:52.943Z,13.73
2022-12-18T21:29:25.476Z,14.27
2022-12-18T21:31:56.475Z,14.47
2022-12-18T21:34:26.614Z,13.93
2022-12-18T21:36:55.399Z,14.53
2022-12-18T21:39:23.065Z,14.00
2022-12-18T21:42:09.315Z,13.93
2022-12-18T21:44:42.110Z,13.40
2022-12-18T21:47:21.488Z,12.73
2022-12-18T21:49:51.186Z,15.10
2022-12-18T21:52:18.329Z,15.40
2022-12-18T21:54:45.253Z,14.70
2022-12-18T21:57:13.381Z,14.63
2022-12-18T21:59:42.653Z,15.33
2022-12-18T22:02:15.387Z,15.13
2022-12-18T22:04:44.176Z,15.07
2022-12-18T22:07:11.545Z,17.13
2022-12-18T22:09:38.424Z,16.47
2022-12-18T22:12:06.097Z,16.83
2022-12-18T22:14:33.051Z,15.47
2022-12-18T22:16:59.900Z,16.23
2022-12-18T22:19:27.049Z,13.63
2022-12-18T22:21:57.795Z,14.63
2022-12-18T22:24:26.958Z,16.47
2022-12-18T22:27:01.990Z,17.50
2022-12-18T22:29:47.617Z,15.70
2022-12-18T22:32:24.863Z,17.13
2022-12-18T22:35:07.955Z,14.07
2022-12-18T22:37:37.484Z,14.60
2022-12-18T22:40:12.231Z,16.37
2022-12-18T22:42:40.519Z,17.50
2022-12-18T22:45:09.383Z,16.93
2022-12-18T22:47:36.210Z,16.70
2022-12-18T22:50:03.312Z,17.33
2022-12-18T22:52:30.090Z,17.30
2022-12-18T22:54:56.979Z,16.97
2022-12-18T22:57:24.580Z,14.43
2022-12-18T22:59:52.185Z,15.67
2022-12-18T23:02:19.822Z,15.53
2022-12-18T23:04:50.185Z,14.53
2022-12-18T23:07:17.627Z,16.80
2022-12-18T23:09:44.914Z,16.80
2022-12-18T23:12:16.031Z,15.43
2022-12-18T23:14:47.130Z,15.13
2022-12-18T23:17:14.000Z,16.27
2022-12-18T23:19:47.147Z,14.93
2022-12-18T23:22:15.997Z,17.40
2022-12-18T23:24:42.792Z,15.97
2022-12-18T23:27:11.906Z,17.17
2022-12-18T23:29:40.015Z,16.00
2022-12-18T23:32:07.316Z,16.33
2022-12-18T23:34:34.200Z,17.13
2022-12-18T23:37:01.191Z,15.93
2022-12-18T23:39:30.036Z,14.77
2022-12-18T23:42:00.507Z,16.80
2022-12-18T23:44:27.965Z,16.13
2022-12-18T23:46:55.337Z,16.27
2022-12-18T23:49:22.600Z,15.30
2022-12-18T23:51:49.910Z,16.23
2022-12-18T23:54:16.800Z,16.07
2022-12-18T23:56:43.736Z,16.80
2022-12-18T23:59:10.614Z,17.23
